sensor_id;sensor_type;location;lat;lon;timestamp;P1;durP1;ratioP1;P2;durP2;ratioP2
39140;SDS011;24875;48.436;10.298;2023-11-21T00:01:39;1.77;;;0.83;;
39140;SDS011;24875;48.436;10.298;2023-11-21T00:04:07;4.73;;;1.10;;
39140;SDS011;24875;48.436;10.298;2023-11-21T00:06:34;4.77;;;1.03;;
39140;SDS011;24875;48.436;10.298;2023-11-21T00:09:00;1.40;;;0.80;;
39140;SDS011;24875;48.436;10.298;2023-11-21T00:11:27;3.20;;;1.20;;
39140;SDS011;24875;48.436;10.298;2023-11-21T00:13:54;6.00;;;1.30;;
39140;SDS011;24875;48.436;10.298;2023-11-21T00:16:20;2.30;;;1.07;;
39140;SDS011;24875;48.436;10.298;2023-11-21T00:18:47;1.00;;;0.90;;
39140;SDS011;24875;48.436;10.298;2023-11-21T00:21:15;4.30;;;1.00;;
39140;SDS011;24875;48.436;10.298;2023-11-21T00:23:41;4.53;;;0.87;;
39140;SDS011;24875;48.436;10.298;2023-11-21T00:26:08;1.43;;;0.87;;
39140;SDS011;24875;48.436;10.298;2023-11-21T00:28:35;3.53;;;0.87;;
39140;SDS011;24875;48.436;10.298;2023-11-21T00:31:01;6.90;;;1.00;;
39140;SDS011;24875;48.436;10.298;2023-11-21T00:33:29;4.23;;;1.43;;
39140;SDS011;24875;48.436;10.298;2023-11-21T00:35:55;2.70;;;1.17;;
39140;SDS011;24875;48.436;10.298;2023-11-21T00:38:23;2.80;;;1.10;;
39140;SDS011;24875;48.436;10.298;2023-11-21T00:40:50;3.10;;;1.40;;
39140;SDS011;24875;48.436;10.298;2023-11-21T00:43:18;3.27;;;1.60;;
39140;SDS011;24875;48.436;10.298;2023-11-21T00:45:44;6.23;;;1.63;;
39140;SDS011;24875;48.436;10.298;2023-11-21T00:48:11;4.00;;;1.97;;
39140;SDS011;24875;48.436;10.298;2023-11-21T00:50:38;7.03;;;2.67;;
39140;SDS011;24875;48.436;10.298;2023-11-21T00:53:05;6.30;;;2.03;;
39140;SDS011;24875;48.436;10.298;2023-11-21T00:55:33;7.13;;;1.83;;
39140;SDS011;24875;48.436;10.298;2023-11-21T00:58:00;5.53;;;2.17;;
39140;SDS011;24875;48.436;10.298;2023-11-21T01:00:28;4.97;;;2.10;;
39140;SDS011;24875;48.436;10.298;2023-11-21T01:02:55;8.73;;;2.60;;
39140;SDS011;24875;48.436;10.298;2023-11-21T01:05:21;6.23;;;2.20;;
39140;SDS011;24875;48.436;10.298;2023-11-21T01:07:48;5.70;;;1.83;;
39140;SDS011;24875;48.436;10.298;2023-11-21T01:10:15;6.67;;;1.90;;
39140;SDS011;24875;48.436;10.298;2023-11-21T01:12:43;4.83;;;2.17;;
39140;SDS011;24875;48.436;10.298;2023-11-21T01:15:10;9.17;;;1.80;;
39140;SDS011;24875;48.436;10.298;2023-11-21T01:17:38;6.83;;;2.13;;
39140;SDS011;24875;48.436;10.298;2023-11-21T01:20:05;4.27;;;1.80;;
39140;SDS011;24875;48.436;10.298;2023-11-21T01:22:36;4.70;;;1.50;;
39140;SDS011;24875;48.436;10.298;2023-11-21T01:25:03;1.73;;;1.13;;
39140;SDS011;24875;48.436;10.298;2023-11-21T01:27:32;1.83;;;1.40;;
39140;SDS011;24875;48.436;10.298;2023-11-21T01:30:00;3.17;;;1.50;;
39140;SDS011;24875;48.436;10.298;2023-11-21T01:32:27;5.90;;;1.70;;
39140;SDS011;24875;48.436;10.298;2023-11-21T01:34:54;5.67;;;1.83;;
39140;SDS011;24875;48.436;10.298;2023-11-21T01:37:21;5.90;;;1.30;;
39140;SDS011;24875;48.436;10.298;2023-11-21T01:39:47;5.17;;;0.90;;
39140;SDS011;24875;48.436;10.298;2023-11-21T01:42:14;1.87;;;1.00;;
39140;SDS011;24875;48.436;10.298;2023-11-21T01:44:40;0.80;;;0.70;;
39140;SDS011;24875;48.436;10.298;2023-11-21T01:47:08;3.80;;;1.20;;
39140;SDS011;24875;48.436;10.298;2023-11-21T01:49:35;1.73;;;0.87;;
39140;SDS011;24875;48.436;10.298;2023-11-21T01:52:03;2.43;;;1.10;;
39140;SDS011;24875;48.436;10.298;2023-11-21T01:54:30;1.70;;;1.10;;
39140;SDS011;24875;48.436;10.298;2023-11-21T01:56:57;1.67;;;1.27;;
39140;SDS011;24875;48.436;10.298;2023-11-21T01:59:27;3.63;;;0.83;;
39140;SDS011;24875;48.436;10.298;2023-11-21T02:02:00;0.73;;;0.63;;
39140;SDS011;24875;48.436;10.298;2023-11-21T02:04:27;1.73;;;0.67;;
39140;SDS011;24875;48.436;10.298;2023-11-21T02:06:54;2.87;;;0.80;;
39140;SDS011;24875;48.436;10.298;2023-11-21T02:09:23;2.90;;;1.03;;
39140;SDS011;24875;48.436;10.298;2023-11-21T02:11:51;2.07;;;0.70;;
39140;SDS011;24875;48.436;10.298;2023-11-21T02:14:19;1.27;;;0.80;;
39140;SDS011;24875;48.436;10.298;2023-11-21T02:16:47;3.07;;;1.00;;
39140;SDS011;24875;48.436;10.298;2023-11-21T02:19:15;5.77;;;1.20;;
39140;SDS011;24875;48.436;10.298;2023-11-21T02:21:49;2.40;;;0.80;;
39140;SDS011;24875;48.436;10.298;2023-11-21T02:24:17;1.17;;;0.80;;
39140;SDS011;24875;48.436;10.298;2023-11-21T02:26:44;2.10;;;0.80;;
39140;SDS011;24875;48.436;10.298;2023-11-21T02:29:11;3.20;;;1.00;;
39140;SDS011;24875;48.436;10.298;2023-11-21T02:31:38;2.57;;;1.20;;
39140;SDS011;24875;48.436;10.298;2023-11-21T02:34:12;2.10;;;0.90;;
39140;SDS011;24875;48.436;10.298;2023-11-21T02:36:39;1.40;;;1.00;;
39140;SDS011;24875;48.436;10.298;2023-11-21T02:39:07;5.87;;;1.33;;
39140;SDS011;24875;48.436;10.298;2023-11-21T02:41:35;1.33;;;0.87;;
39140;SDS011;24875;48.436;10.298;2023-11-21T02:44:02;4.73;;;0.93;;
39140;SDS011;24875;48.436;10.298;2023-11-21T02:46:31;2.70;;;0.83;;
39140;SDS011;24875;48.436;10.298;2023-11-21T02:48:58;2.40;;;1.00;;
39140;SDS011;24875;48.436;10.298;2023-11-21T02:51:25;2.10;;;0.90;;
39140;SDS011;24875;48.436;10.298;2023-11-21T02:53:51;2.10;;;0.93;;
39140;SDS011;24875;48.436;10.298;2023-11-21T02:56:18;8.67;;;1.60;;
39140;SDS011;24875;48.436;10.298;2023-11-21T02:58:46;3.77;;;1.50;;
39140;SDS011;24875;48.436;10.298;2023-11-21T03:01:12;1.83;;;1.00;;
39140;SDS011;24875;48.436;10.298;2023-11-21T03:03:38;3.27;;;0.80;;
39140;SDS011;24875;48.436;10.298;2023-11-21T03:06:05;4.13;;;0.87;;
39140;SDS011;24875;48.436;10.298;2023-11-21T03:08:32;3.40;;;1.13;;
39140;SDS011;24875;48.436;10.298;2023-11-21T03:10:58;4.10;;;0.80;;
39140;SDS011;24875;48.436;10.298;2023-11-21T03:13:25;2.57;;;1.10;;
39140;SDS011;24875;48.436;10.298;2023-11-21T03:15:52;2.40;;;1.10;;
39140;SDS011;24875;48.436;10.298;2023-11-21T03:18:19;1.17;;;0.80;;
39140;SDS011;24875;48.436;10.298;2023-11-21T03:20:47;2.67;;;1.30;;
39140;SDS011;24875;48.436;10.298;2023-11-21T03:23:13;5.03;;;1.07;;
39140;SDS011;24875;48.436;10.298;2023-11-21T03:25:40;2.37;;;0.97;;
39140;SDS011;24875;48.436;10.298;2023-11-21T03:28:07;4.40;;;1.33;;
39140;SDS011;24875;48.436;10.298;2023-11-21T03:30:34;3.27;;;0.80;;
39140;SDS011;24875;48.436;10.298;2023-11-21T03:33:01;0.80;;;0.73;;
39140;SDS011;24875;48.436;10.298;2023-11-21T03:35:28;2.30;;;1.00;;
39140;SDS011;24875;48.436;10.298;2023-11-21T03:37:54;3.07;;;0.87;;
39140;SDS011;24875;48.436;10.298;2023-11-21T03:40:21;3.07;;;1.10;;
39140;SDS011;24875;48.436;10.298;2023-11-21T03:42:48;0.60;;;0.60;;
39140;SDS011;24875;48.436;10.298;2023-11-21T03:45:14;2.23;;;0.77;;
39140;SDS011;24875;48.436;10.298;2023-11-21T03:47:41;0.73;;;0.60;;
39140;SDS011;24875;48.436;10.298;2023-11-21T03:50:09;4.83;;;0.70;;
39140;SDS011;24875;48.436;10.298;2023-11-21T03:52:36;3.70;;;1.00;;
39140;SDS011;24875;48.436;10.298;2023-11-21T03:55:03;1.47;;;0.70;;
39140;SDS011;24875;48.436;10.298;2023-11-21T03:57:30;0.97;;;0.90;;
39140;SDS011;24875;48.436;10.298;2023-11-21T03:59:57;0.60;;;0.60;;
39140;SDS011;24875;48.436;10.298;2023-11-21T04:02:23;1.30;;;0.50;;
39140;SDS011;24875;48.436;10.298;2023-11-21T04:04:51;2.27;;;0.70;;
39140;SDS011;24875;48.436;10.298;2023-11-21T04:07:18;0.70;;;0.63;;
39140;SDS011;24875;48.436;10.298;2023-11-21T04:09:47;1.77;;;0.83;;
39140;SDS011;24875;48.436;10.298;2023-11-21T04:12:13;5.83;;;0.80;;
39140;SDS011;24875;48.436;10.298;2023-11-21T04:14:40;3.17;;;0.80;;
39140;SDS011;24875;48.436;10.298;2023-11-21T04:17:06;4.77;;;1.37;;
39140;SDS011;24875;48.436;10.298;2023-11-21T04:19:33;1.17;;;0.73;;
39140;SDS011;24875;48.436;10.298;2023-11-21T04:21:59;1.57;;;1.00;;
39140;SDS011;24875;48.436;10.298;2023-11-21T04:24:27;5.30;;;0.73;;
39140;SDS011;24875;48.436;10.298;2023-11-21T04:26:54;3.93;;;0.63;;
39140;SDS011;24875;48.436;10.298;2023-11-21T04:29:20;1.53;;;0.70;;
39140;SDS011;24875;48.436;10.298;2023-11-21T04:31:47;5.50;;;0.93;;
39140;SDS011;24875;48.436;10.298;2023-11-21T04:34:15;1.37;;;0.80;;
39140;SDS011;24875;48.436;10.298;2023-11-21T04:36:41;0.83;;;0.67;;
39140;SDS011;24875;48.436;10.298;2023-11-21T04:39:08;2.00;;;0.93;;
39140;SDS011;24875;48.436;10.298;2023-11-21T04:41:35;1.17;;;0.80;;
39140;SDS011;24875;48.436;10.298;2023-11-21T04:44:04;4.47;;;0.73;;
39140;SDS011;24875;48.436;10.298;2023-11-21T04:46:31;7.50;;;0.87;;
39140;SDS011;24875;48.436;10.298;2023-11-21T04:48:58;1.80;;;0.70;;
39140;SDS011;24875;48.436;10.298;2023-11-21T04:51:24;0.80;;;0.80;;
39140;SDS011;24875;48.436;10.298;2023-11-21T04:53:51;2.57;;;0.60;;
39140;SDS011;24875;48.436;10.298;2023-11-21T04:56:17;4.90;;;0.90;;
39140;SDS011;24875;48.436;10.298;2023-11-21T04:58:45;0.87;;;0.50;;
39140;SDS011;24875;48.436;10.298;2023-11-21T05:01:11;4.13;;;1.10;;
39140;SDS011;24875;48.436;10.298;2023-11-21T05:03:38;2.97;;;0.70;;
39140;SDS011;24875;48.436;10.298;2023-11-21T05:06:05;1.50;;;0.70;;
39140;SDS011;24875;48.436;10.298;2023-11-21T05:08:32;0.97;;;0.70;;
39140;SDS011;24875;48.436;10.298;2023-11-21T05:10:59;1.17;;;0.70;;
39140;SDS011;24875;48.436;10.298;2023-11-21T05:13:25;1.63;;;0.87;;
39140;SDS011;24875;48.436;10.298;2023-11-21T05:15:54;1.40;;;0.80;;
39140;SDS011;24875;48.436;10.298;2023-11-21T05:18:20;1.53;;;0.63;;
39140;SDS011;24875;48.436;10.298;2023-11-21T05:20:47;0.97;;;0.73;;
39140;SDS011;24875;48.436;10.298;2023-11-21T05:23:14;6.13;;;1.07;;
39140;SDS011;24875;48.436;10.298;2023-11-21T05:25:40;1.20;;;0.63;;
39140;SDS011;24875;48.436;10.298;2023-11-21T05:28:07;0.90;;;0.50;;
39140;SDS011;24875;48.436;10.298;2023-11-21T05:30:33;1.57;;;1.10;;
39140;SDS011;24875;48.436;10.298;2023-11-21T05:33:01;2.47;;;0.80;;
39140;SDS011;24875;48.436;10.298;2023-11-21T05:35:28;2.87;;;0.70;;
39140;SDS011;24875;48.436;10.298;2023-11-21T05:37:54;2.20;;;1.20;;
39140;SDS011;24875;48.436;10.298;2023-11-21T05:40:21;4.07;;;1.40;;
39140;SDS011;24875;48.436;10.298;2023-11-21T05:42:48;8.00;;;2.57;;
39140;SDS011;24875;48.436;10.298;2023-11-21T05:45:16;12.13;;;3.50;;
39140;SDS011;24875;48.436;10.298;2023-11-21T05:47:44;12.60;;;4.40;;
39140;SDS011;24875;48.436;10.298;2023-11-21T05:50:13;13.07;;;4.37;;
39140;SDS011;24875;48.436;10.298;2023-11-21T05:52:41;10.23;;;3.23;;
39140;SDS011;24875;48.436;10.298;2023-11-21T05:55:08;29.80;;;10.33;;
39140;SDS011;24875;48.436;10.298;2023-11-21T05:57:35;18.87;;;5.73;;
39140;SDS011;24875;48.436;10.298;2023-11-21T06:00:03;12.53;;;5.27;;
39140;SDS011;24875;48.436;10.298;2023-11-21T06:02:36;6.27;;;3.83;;
39140;SDS011;24875;48.436;10.298;2023-11-21T06:05:03;5.77;;;3.03;;
39140;SDS011;24875;48.436;10.298;2023-11-21T06:07:31;2.43;;;1.67;;
39140;SDS011;24875;48.436;10.298;2023-11-21T06:09:58;4.80;;;2.10;;
39140;SDS011;24875;48.436;10.298;2023-11-21T06:12:27;6.00;;;1.93;;
39140;SDS011;24875;48.436;10.298;2023-11-21T06:14:54;4.33;;;2.60;;
39140;SDS011;24875;48.436;10.298;2023-11-21T06:17:20;4.23;;;2.47;;
39140;SDS011;24875;48.436;10.298;2023-11-21T06:19:47;8.67;;;3.20;;
39140;SDS011;24875;48.436;10.298;2023-11-21T06:22:13;19.50;;;4.87;;
39140;SDS011;24875;48.436;10.298;2023-11-21T06:24:41;15.73;;;4.40;;
39140;SDS011;24875;48.436;10.298;2023-11-21T06:27:08;12.40;;;4.67;;
39140;SDS011;24875;48.436;10.298;2023-11-21T06:29:34;9.77;;;4.20;;
39140;SDS011;24875;48.436;10.298;2023-11-21T06:32:02;6.83;;;2.90;;
39140;SDS011;24875;48.436;10.298;2023-11-21T06:34:30;5.13;;;3.00;;
39140;SDS011;24875;48.436;10.298;2023-11-21T06:36:56;6.53;;;2.27;;
39140;SDS011;24875;48.436;10.298;2023-11-21T06:39:23;4.03;;;1.70;;
39140;SDS011;24875;48.436;10.298;2023-11-21T06:41:51;4.27;;;1.50;;
39140;SDS011;24875;48.436;10.298;2023-11-21T06:44:17;1.83;;;1.57;;
39140;SDS011;24875;48.436;10.298;2023-11-21T06:46:44;2.87;;;1.43;;
39140;SDS011;24875;48.436;10.298;2023-11-21T06:49:11;2.47;;;1.37;;
39140;SDS011;24875;48.436;10.298;2023-11-21T06:51:37;2.60;;;1.00;;
39140;SDS011;24875;48.436;10.298;2023-11-21T06:54:04;3.00;;;1.30;;
39140;SDS011;24875;48.436;10.298;2023-11-21T06:56:32;4.80;;;1.30;;
39140;SDS011;24875;48.436;10.298;2023-11-21T06:59:00;3.43;;;1.30;;
39140;SDS011;24875;48.436;10.298;2023-11-21T07:01:26;5.80;;;1.70;;
39140;SDS011;24875;48.436;10.298;2023-11-21T07:03:53;3.70;;;1.50;;
39140;SDS011;24875;48.436;10.298;2023-11-21T07:06:19;3.30;;;1.47;;
39140;SDS011;24875;48.436;10.298;2023-11-21T07:08:46;2.00;;;1.23;;
39140;SDS011;24875;48.436;10.298;2023-11-21T07:11:13;3.37;;;1.50;;
39140;SDS011;24875;48.436;10.298;2023-11-21T07:13:40;3.67;;;1.10;;
39140;SDS011;24875;48.436;10.298;2023-11-21T07:16:08;4.43;;;1.00;;
39140;SDS011;24875;48.436;10.298;2023-11-21T07:18:35;3.53;;;1.40;;
39140;SDS011;24875;48.436;10.298;2023-11-21T07:21:01;3.73;;;1.60;;
39140;SDS011;24875;48.436;10.298;2023-11-21T07:23:28;2.30;;;1.30;;
39140;SDS011;24875;48.436;10.298;2023-11-21T07:25:55;1.53;;;1.30;;
39140;SDS011;24875;48.436;10.298;2023-11-21T07:28:22;4.40;;;1.50;;
39140;SDS011;24875;48.436;10.298;2023-11-21T07:30:50;1.70;;;1.10;;
39140;SDS011;24875;48.436;10.298;2023-11-21T07:33:19;2.33;;;1.37;;
39140;SDS011;24875;48.436;10.298;2023-11-21T07:35:46;2.03;;;1.27;;
39140;SDS011;24875;48.436;10.298;2023-11-21T07:38:13;3.27;;;1.50;;
39140;SDS011;24875;48.436;10.298;2023-11-21T07:40:39;7.40;;;1.90;;
39140;SDS011;24875;48.436;10.298;2023-11-21T07:43:06;8.30;;;2.83;;
39140;SDS011;24875;48.436;10.298;2023-11-21T07:45:32;11.53;;;3.33;;
39140;SDS011;24875;48.436;10.298;2023-11-21T07:47:59;12.93;;;3.47;;
39140;SDS011;24875;48.436;10.298;2023-11-21T07:50:27;9.67;;;2.57;;
39140;SDS011;24875;48.436;10.298;2023-11-21T07:52:53;4.53;;;1.93;;
39140;SDS011;24875;48.436;10.298;2023-11-21T07:55:20;3.17;;;1.80;;
39140;SDS011;24875;48.436;10.298;2023-11-21T07:57:47;1.43;;;0.80;;
39140;SDS011;24875;48.436;10.298;2023-11-21T08:00:13;1.13;;;1.03;;
39140;SDS011;24875;48.436;10.298;2023-11-21T08:02:40;1.67;;;1.30;;
39140;SDS011;24875;48.436;10.298;2023-11-21T08:05:11;2.20;;;1.30;;
39140;SDS011;24875;48.436;10.298;2023-11-21T08:07:39;1.20;;;0.93;;
39140;SDS011;24875;48.436;10.298;2023-11-21T08:10:05;1.47;;;0.80;;
39140;SDS011;24875;48.436;10.298;2023-11-21T08:12:35;2.90;;;1.10;;
39140;SDS011;24875;48.436;10.298;2023-11-21T08:15:02;1.90;;;1.20;;
39140;SDS011;24875;48.436;10.298;2023-11-21T08:17:28;1.40;;;1.20;;
39140;SDS011;24875;48.436;10.298;2023-11-21T08:19:57;3.57;;;1.80;;
39140;SDS011;24875;48.436;10.298;2023-11-21T08:22:24;3.30;;;1.53;;
39140;SDS011;24875;48.436;10.298;2023-11-21T08:24:52;5.43;;;2.20;;
39140;SDS011;24875;48.436;10.298;2023-11-21T08:27:21;3.17;;;1.90;;
39140;SDS011;24875;48.436;10.298;2023-11-21T08:29:47;3.33;;;1.30;;
39140;SDS011;24875;48.436;10.298;2023-11-21T08:32:13;2.00;;;1.20;;
39140;SDS011;24875;48.436;10.298;2023-11-21T08:34:40;3.97;;;1.50;;
39140;SDS011;24875;48.436;10.298;2023-11-21T08:37:08;5.73;;;1.73;;
39140;SDS011;24875;48.436;10.298;2023-11-21T08:39:36;6.13;;;2.33;;
39140;SDS011;24875;48.436;10.298;2023-11-21T08:42:04;2.17;;;1.30;;
39140;SDS011;24875;48.436;10.298;2023-11-21T08:44:31;7.50;;;1.77;;
39140;SDS011;24875;48.436;10.298;2023-11-21T08:46:57;4.53;;;1.37;;
39140;SDS011;24875;48.436;10.298;2023-11-21T08:49:24;2.03;;;1.10;;
39140;SDS011;24875;48.436;10.298;2023-11-21T08:51:52;2.90;;;1.47;;
39140;SDS011;24875;48.436;10.298;2023-11-21T08:54:20;3.87;;;1.90;;
39140;SDS011;24875;48.436;10.298;2023-11-21T08:56:46;2.80;;;1.20;;
39140;SDS011;24875;48.436;10.298;2023-11-21T08:59:14;3.33;;;1.07;;
39140;SDS011;24875;48.436;10.298;2023-11-21T09:01:41;1.43;;;0.97;;
39140;SDS011;24875;48.436;10.298;2023-11-21T09:04:07;1.80;;;1.10;;
39140;SDS011;24875;48.436;10.298;2023-11-21T09:06:34;2.20;;;1.00;;
39140;SDS011;24875;48.436;10.298;2023-11-21T09:09:01;1.40;;;1.13;;
39140;SDS011;24875;48.436;10.298;2023-11-21T09:11:29;3.27;;;1.30;;
39140;SDS011;24875;48.436;10.298;2023-11-21T09:13:58;1.60;;;0.97;;
39140;SDS011;24875;48.436;10.298;2023-11-21T09:16:26;2.63;;;1.20;;
39140;SDS011;24875;48.436;10.298;2023-11-21T09:18:53;1.40;;;1.10;;
39140;SDS011;24875;48.436;10.298;2023-11-21T09:21:19;3.00;;;1.40;;
39140;SDS011;24875;48.436;10.298;2023-11-21T09:23:46;2.40;;;1.33;;
39140;SDS011;24875;48.436;10.298;2023-11-21T09:26:13;2.73;;;1.70;;
39140;SDS011;24875;48.436;10.298;2023-11-21T09:28:41;2.27;;;1.43;;
39140;SDS011;24875;48.436;10.298;2023-11-21T09:31:11;4.53;;;1.50;;
39140;SDS011;24875;48.436;10.298;2023-11-21T09:33:39;2.93;;;1.53;;
39140;SDS011;24875;48.436;10.298;2023-11-21T09:36:10;3.53;;;1.60;;
39140;SDS011;24875;48.436;10.298;2023-11-21T09:38:38;5.87;;;1.53;;
39140;SDS011;24875;48.436;10.298;2023-11-21T09:41:06;3.60;;;1.83;;
39140;SDS011;24875;48.436;10.298;2023-11-21T09:43:42;2.40;;;1.33;;
39140;SDS011;24875;48.436;10.298;2023-11-21T09:46:11;1.63;;;1.30;;
39140;SDS011;24875;48.436;10.298;2023-11-21T09:48:46;2.47;;;1.70;;
39140;SDS011;24875;48.436;10.298;2023-11-21T09:51:16;2.90;;;1.20;;
39140;SDS011;24875;48.436;10.298;2023-11-21T09:53:45;3.70;;;1.10;;
39140;SDS011;24875;48.436;10.298;2023-11-21T09:56:17;2.03;;;1.30;;
39140;SDS011;24875;48.436;10.298;2023-11-21T09:58:49;2.50;;;1.70;;
39140;SDS011;24875;48.436;10.298;2023-11-21T10:01:17;2.00;;;1.57;;
39140;SDS011;24875;48.436;10.298;2023-11-21T10:03:46;4.00;;;2.30;;
39140;SDS011;24875;48.436;10.298;2023-11-21T10:06:13;1.83;;;1.50;;
39140;SDS011;24875;48.436;10.298;2023-11-21T10:08:40;3.13;;;2.00;;
39140;SDS011;24875;48.436;10.298;2023-11-21T10:11:07;2.17;;;1.53;;
39140;SDS011;24875;48.436;10.298;2023-11-21T10:13:37;2.97;;;1.70;;
39140;SDS011;24875;48.436;10.298;2023-11-21T10:16:06;8.73;;;3.07;;
39140;SDS011;24875;48.436;10.298;2023-11-21T10:18:37;6.03;;;2.93;;
39140;SDS011;24875;48.436;10.298;2023-11-21T10:21:06;4.93;;;1.53;;
39140;SDS011;24875;48.436;10.298;2023-11-21T10:23:34;2.57;;;1.67;;
39140;SDS011;24875;48.436;10.298;2023-11-21T10:26:00;3.13;;;1.60;;
39140;SDS011;24875;48.436;10.298;2023-11-21T10:28:27;3.40;;;1.53;;
39140;SDS011;24875;48.436;10.298;2023-11-21T10:30:54;2.37;;;1.20;;
39140;SDS011;24875;48.436;10.298;2023-11-21T10:33:26;1.90;;;1.40;;
39140;SDS011;24875;48.436;10.298;2023-11-21T10:35:53;3.30;;;1.60;;
39140;SDS011;24875;48.436;10.298;2023-11-21T10:38:21;2.40;;;1.47;;
39140;SDS011;24875;48.436;10.298;2023-11-21T10:40:49;1.93;;;1.53;;
39140;SDS011;24875;48.436;10.298;2023-11-21T10:43:16;2.80;;;1.40;;
39140;SDS011;24875;48.436;10.298;2023-11-21T10:45:43;2.50;;;1.20;;
39140;SDS011;24875;48.436;10.298;2023-11-21T10:48:11;2.20;;;1.60;;
39140;SDS011;24875;48.436;10.298;2023-11-21T10:50:40;3.20;;;1.93;;
39140;SDS011;24875;48.436;10.298;2023-11-21T10:53:07;3.07;;;1.73;;
39140;SDS011;24875;48.436;10.298;2023-11-21T10:55:34;2.30;;;1.30;;
39140;SDS011;24875;48.436;10.298;2023-11-21T10:58:02;3.07;;;1.17;;
39140;SDS011;24875;48.436;10.298;2023-11-21T11:00:30;1.70;;;1.00;;
39140;SDS011;24875;48.436;10.298;2023-11-21T11:02:57;1.70;;;1.20;;
39140;SDS011;24875;48.436;10.298;2023-11-21T11:05:24;4.00;;;1.50;;
39140;SDS011;24875;48.436;10.298;2023-11-21T11:07:52;2.50;;;1.37;;
39140;SDS011;24875;48.436;10.298;2023-11-21T11:10:26;2.13;;;1.50;;
39140;SDS011;24875;48.436;10.298;2023-11-21T11:12:55;2.33;;;1.60;;
39140;SDS011;24875;48.436;10.298;2023-11-21T11:15:23;3.30;;;1.60;;
39140;SDS011;24875;48.436;10.298;2023-11-21T11:17:50;2.67;;;1.40;;
39140;SDS011;24875;48.436;10.298;2023-11-21T11:20:17;2.67;;;1.57;;
39140;SDS011;24875;48.436;10.298;2023-11-21T11:22:48;4.83;;;2.60;;
39140;SDS011;24875;48.436;10.298;2023-11-21T11:25:29;3.23;;;1.80;;
39140;SDS011;24875;48.436;10.298;2023-11-21T11:28:06;2.60;;;1.47;;
39140;SDS011;24875;48.436;10.298;2023-11-21T11:30:39;4.43;;;1.50;;
39140;SDS011;24875;48.436;10.298;2023-11-21T11:33:14;3.23;;;1.70;;
39140;SDS011;24875;48.436;10.298;2023-11-21T11:35:52;4.20;;;2.33;;
39140;SDS011;24875;48.436;10.298;2023-11-21T11:38:26;3.00;;;1.50;;
39140;SDS011;24875;48.436;10.298;2023-11-21T11:40:57;3.40;;;1.40;;
39140;SDS011;24875;48.436;10.298;2023-11-21T11:43:29;6.27;;;1.57;;
39140;SDS011;24875;48.436;10.298;2023-11-21T11:45:57;4.27;;;2.10;;
39140;SDS011;24875;48.436;10.298;2023-11-21T11:48:25;4.63;;;1.40;;
39140;SDS011;24875;48.436;10.298;2023-11-21T11:51:01;4.10;;;1.47;;
39140;SDS011;24875;48.436;10.298;2023-11-21T11:53:33;1.90;;;1.10;;
39140;SDS011;24875;48.436;10.298;2023-11-21T11:58:57;3.37;;;1.50;;
39140;SDS011;24875;48.436;10.298;2023-11-21T12:01:25;1.83;;;1.13;;
39140;SDS011;24875;48.436;10.298;2023-11-21T12:06:56;0.60;;;0.50;;
39140;SDS011;24875;48.436;10.298;2023-11-21T12:09:27;0.60;;;0.60;;
39140;SDS011;24875;48.436;10.298;2023-11-21T12:11:55;0.37;;;0.37;;
39140;SDS011;24875;48.436;10.298;2023-11-21T12:14:23;0.63;;;0.63;;
39140;SDS011;24875;48.436;10.298;2023-11-21T12:16:50;1.00;;;0.70;;
39140;SDS011;24875;48.436;10.298;2023-11-21T12:19:18;0.80;;;0.53;;
39140;SDS011;24875;48.436;10.298;2023-11-21T12:21:45;0.87;;;0.60;;
39140;SDS011;24875;48.436;10.298;2023-11-21T12:24:13;0.60;;;0.50;;
39140;SDS011;24875;48.436;10.298;2023-11-21T12:26:42;0.60;;;0.50;;
39140;SDS011;24875;48.436;10.298;2023-11-21T12:29:09;0.43;;;0.43;;
39140;SDS011;24875;48.436;10.298;2023-11-21T12:31:37;0.50;;;0.40;;
39140;SDS011;24875;48.436;10.298;2023-11-21T12:34:03;0.70;;;0.60;;
39140;SDS011;24875;48.436;10.298;2023-11-21T12:36:31;0.50;;;0.50;;
39140;SDS011;24875;48.436;10.298;2023-11-21T12:38:59;0.60;;;0.53;;
39140;SDS011;24875;48.436;10.298;2023-11-21T12:41:27;0.70;;;0.40;;
39140;SDS011;24875;48.436;10.298;2023-11-21T12:43:54;0.73;;;0.73;;
39140;SDS011;24875;48.436;10.298;2023-11-21T12:46:21;3.23;;;0.90;;
39140;SDS011;24875;48.436;10.298;2023-11-21T12:48:49;1.30;;;0.60;;
39140;SDS011;24875;48.436;10.298;2023-11-21T12:51:15;0.87;;;0.60;;
39140;SDS011;24875;48.436;10.298;2023-11-21T12:53:43;1.63;;;0.63;;
39140;SDS011;24875;48.436;10.298;2023-11-21T12:56:12;1.40;;;0.90;;
39140;SDS011;24875;48.436;10.298;2023-11-21T12:58:43;3.53;;;0.87;;
39140;SDS011;24875;48.436;10.298;2023-11-21T13:01:12;0.90;;;0.70;;
39140;SDS011;24875;48.436;10.298;2023-11-21T13:03:43;4.57;;;0.63;;
39140;SDS011;24875;48.436;10.298;2023-11-21T13:06:14;1.87;;;0.60;;
39140;SDS011;24875;48.436;10.298;2023-11-21T13:08:41;1.27;;;0.90;;
39140;SDS011;24875;48.436;10.298;2023-11-21T13:11:10;3.57;;;0.70;;
39140;SDS011;24875;48.436;10.298;2023-11-21T13:13:40;3.30;;;0.83;;
39140;SDS011;24875;48.436;10.298;2023-11-21T13:16:07;2.20;;;0.60;;
39140;SDS011;24875;48.436;10.298;2023-11-21T13:18:35;1.17;;;0.70;;
39140;SDS011;24875;48.436;10.298;2023-11-21T13:21:02;1.20;;;0.50;;
39140;SDS011;24875;48.436;10.298;2023-11-21T13:23:36;0.80;;;0.60;;
39140;SDS011;24875;48.436;10.298;2023-11-21T13:26:03;2.43;;;1.13;;
39140;SDS011;24875;48.436;10.298;2023-11-21T13:28:30;0.90;;;0.70;;
39140;SDS011;24875;48.436;10.298;2023-11-21T13:30:58;1.37;;;0.87;;
39140;SDS011;24875;48.436;10.298;2023-11-21T13:33:29;4.30;;;0.63;;
39140;SDS011;24875;48.436;10.298;2023-11-21T13:35:58;2.43;;;0.63;;
39140;SDS011;24875;48.436;10.298;2023-11-21T13:38:26;1.87;;;0.90;;
39140;SDS011;24875;48.436;10.298;2023-11-21T13:40:58;1.93;;;1.10;;
39140;SDS011;24875;48.436;10.298;2023-11-21T13:43:25;1.93;;;1.33;;
39140;SDS011;24875;48.436;10.298;2023-11-21T13:45:53;5.27;;;1.50;;
39140;SDS011;24875;48.436;10.298;2023-11-21T13:48:25;1.83;;;1.33;;
39140;SDS011;24875;48.436;10.298;2023-11-21T13:50:57;3.73;;;1.40;;
39140;SDS011;24875;48.436;10.298;2023-11-21T13:53:27;1.87;;;1.43;;
39140;SDS011;24875;48.436;10.298;2023-11-21T13:55:54;2.30;;;1.83;;
39140;SDS011;24875;48.436;10.298;2023-11-21T13:58:24;1.97;;;1.53;;
39140;SDS011;24875;48.436;10.298;2023-11-21T14:01:00;3.87;;;2.00;;
39140;SDS011;24875;48.436;10.298;2023-11-21T14:03:31;2.03;;;1.43;;
39140;SDS011;24875;48.436;10.298;2023-11-21T14:06:04;2.07;;;1.60;;
39140;SDS011;24875;48.436;10.298;2023-11-21T14:08:39;6.60;;;3.80;;
39140;SDS011;24875;48.436;10.298;2023-11-21T14:11:06;11.27;;;5.10;;
39140;SDS011;24875;48.436;10.298;2023-11-21T14:13:34;9.13;;;3.63;;
39140;SDS011;24875;48.436;10.298;2023-11-21T14:16:00;11.53;;;5.33;;
39140;SDS011;24875;48.436;10.298;2023-11-21T14:18:27;9.70;;;4.03;;
39140;SDS011;24875;48.436;10.298;2023-11-21T14:20:59;11.40;;;4.33;;
39140;SDS011;24875;48.436;10.298;2023-11-21T14:23:25;4.53;;;1.90;;
39140;SDS011;24875;48.436;10.298;2023-11-21T14:25:53;2.13;;;1.73;;
39140;SDS011;24875;48.436;10.298;2023-11-21T14:28:21;9.93;;;3.93;;
39140;SDS011;24875;48.436;10.298;2023-11-21T14:30:49;6.83;;;3.30;;
39140;SDS011;24875;48.436;10.298;2023-11-21T14:33:16;2.43;;;1.70;;
39140;SDS011;24875;48.436;10.298;2023-11-21T14:35:42;3.23;;;1.80;;
39140;SDS011;24875;48.436;10.298;2023-11-21T14:38:09;5.77;;;2.50;;
39140;SDS011;24875;48.436;10.298;2023-11-21T14:40:36;8.93;;;2.60;;
39140;SDS011;24875;48.436;10.298;2023-11-21T14:43:03;7.60;;;2.17;;